Time;durP1;ratioP1;P1;durP2;ratioP2;P2;SDS_P1;SDS_P2;PMS_P1;PMS_P2;Temp;Humidity;BMP_temperature;BMP_pressure;BME280_temperature;BME280_humidity;BME280_pressure;Samples;Min_cycle;Max_cycle;Signal;HPM_P1;HPM_P2
2022/09/17 00:01:22;;;;;;;15.17;6.40;;;9.80;99.90;;;;;;5053626;28;20174;-69
2022/09/17 00:03:52;;;;;;;15.23;6.10;;;9.80;99.90;;;;;;5053653;28;20192;-68
2022/09/17 00:06:19;;;;;;;18.57;7.30;;;9.80;99.90;;;;;;5066406;28;20271;-68
2022/09/17 00:08:45;;;;;;;19.27;7.13;;;9.80;99.90;;;;;;5094540;28;20193;-68
2022/09/17 00:11:25;;;;;;;14.07;7.30;;;9.80;99.90;;;;;;5069672;28;20239;-68
2022/09/17 00:13:52;;;;;;;15.37;7.53;;;9.70;99.90;;;;;;5055348;28;20251;-68
2022/09/17 00:16:39;;;;;;;16.00;6.90;;;9.70;99.90;;;;;;5057788;28;20177;-68
2022/09/17 00:19:09;;;;;;;21.00;7.27;;;9.80;99.90;;;;;;5057977;28;20189;-68
2022/09/17 00:21:35;;;;;;;16.77;6.80;;;9.80;99.90;;;;;;5056337;28;20174;-68
2022/09/17 00:24:04;;;;;;;15.03;7.27;;;9.80;99.90;;;;;;5056432;28;20220;-68
2022/09/17 00:26:31;;;;;;;15.63;7.87;;;9.80;99.90;;;;;;5056632;28;20175;-68
2022/09/17 00:28:58;;;;;;;18.70;8.17;;;9.70;99.90;;;;;;5058338;28;20675;-69
2022/09/17 00:31:25;;;;;;;20.10;8.40;;;9.80;99.90;;;;;;5057798;28;20579;-68
2022/09/17 00:33:51;;;;;;;26.73;10.60;;;9.70;99.90;;;;;;5057658;28;20195;-69
2022/09/17 00:36:19;;;;;;;20.83;10.67;;;9.60;99.90;;;;;;5069535;28;20177;-68
2022/09/17 00:38:51;;;;;;;23.30;10.63;;;9.60;99.90;;;;;;5096153;28;20203;-68
2022/09/17 00:41:18;;;;;;;25.17;12.30;;;9.60;99.90;;;;;;5072446;28;20194;-68
2022/09/17 00:43:49;;;;;;;21.67;12.17;;;9.60;99.90;;;;;;5057289;28;20174;-68
2022/09/17 00:46:32;;;;;;;26.00;13.63;;;9.60;99.90;;;;;;5057373;28;20528;-68
2022/09/17 00:49:17;;;;;;;28.87;13.40;;;9.60;99.90;;;;;;5057102;28;20541;-68
2022/09/17 00:51:50;;;;;;;27.60;14.03;;;9.60;99.90;;;;;;5055516;28;20209;-69
2022/09/17 00:54:17;;;;;;;27.33;15.23;;;9.60;99.90;;;;;;5055762;28;20177;-68
2022/09/17 00:56:43;;;;;;;33.77;16.70;;;9.50;99.90;;;;;;5056739;28;20181;-68
2022/09/17 00:59:09;;;;;;;28.53;16.53;;;9.50;99.90;;;;;;5055552;28;20202;-68
2022/09/17 01:01:35;;;;;;;30.70;17.67;;;9.50;99.90;;;;;;5055200;28;20185;-68
2022/09/17 01:04:01;;;;;;;38.23;19.90;;;9.50;99.90;;;;;;5057115;28;20190;-68
2022/09/17 01:07:12;;;;;;;32.77;20.27;;;9.40;99.90;;;;;;5070965;28;20177;-68
2022/09/17 01:10:02;;;;;;;44.13;23.27;;;9.40;99.90;;;;;;5094756;28;20200;-69
2022/09/17 01:12:55;;;;;;;44.90;22.90;;;9.40;99.90;;;;;;5054757;28;20202;-69
2022/09/17 01:15:30;;;;;;;39.63;22.37;;;9.40;99.90;;;;;;5052520;28;20186;-69
2022/09/17 01:17:59;;;;;;;41.20;23.47;;;9.40;99.90;;;;;;5055293;28;20269;-69
2022/09/17 01:20:31;;;;;;;41.83;23.57;;;9.30;99.90;;;;;;5056547;28;20173;-68
2022/09/17 01:23:17;;;;;;;48.07;24.17;;;9.30;99.90;;;;;;5056183;28;20584;-68
2022/09/17 01:26:16;;;;;;;33.13;20.90;;;9.30;99.90;;;;;;5053847;28;20170;-69
2022/09/17 01:28:48;;;;;;;43.53;22.17;;;9.30;99.90;;;;;;5070291;28;20205;-69
2022/09/17 01:31:32;;;;;;;43.70;21.63;;;9.30;99.90;;;;;;5076118;28;20249;-69
2022/09/17 01:34:14;;;;;;;35.07;21.00;;;9.30;99.90;;;;;;5076281;28;20216;-69
2022/09/17 01:36:58;;;;;;;36.20;21.80;;;9.20;99.90;;;;;;5083821;28;20290;-69
2022/09/17 01:39:51;;;;;;;34.93;19.47;;;9.20;99.90;;;;;;5096313;28;20185;-70
2022/09/17 01:42:24;;;;;;;32.47;18.27;;;9.20;99.90;;;;;;5054926;28;20170;-69
2022/09/17 01:45:10;;;;;;;35.50;18.37;;;9.20;99.90;;;;;;5056075;28;20163;-69
2022/09/17 01:47:53;;;;;;;31.87;16.70;;;9.10;99.90;;;;;;5055833;28;20170;-69
2022/09/17 01:50:27;;;;;;;31.33;16.63;;;9.10;99.90;;;;;;5056517;28;20165;-69
2022/09/17 01:52:55;;;;;;;29.57;17.33;;;9.10;99.90;;;;;;5055260;28;20194;-68
2022/09/17 01:55:27;;;;;;;28.93;15.80;;;9.10;99.90;;;;;;5055900;28;20171;-69
2022/09/17 01:58:01;;;;;;;30.93;16.33;;;9.10;99.90;;;;;;5063170;28;20559;-69
2022/09/17 02:00:27;;;;;;;30.50;16.73;;;9.10;99.90;;;;;;5075755;28;20246;-69
2022/09/17 02:03:03;;;;;;;30.67;16.43;;;9.10;99.90;;;;;;5075483;28;20226;-69
2022/09/17 02:05:28;;;;;;;31.30;16.17;;;9.10;99.90;;;;;;5074298;28;20170;-69
2022/09/17 02:08:19;;;;;;;31.90;16.60;;;9.20;99.90;;;;;;5094815;28;20245;-69
2022/09/17 02:11:08;;;;;;;39.47;18.13;;;9.20;99.90;;;;;;5078716;28;20555;-69
2022/09/17 02:13:50;;;;;;;44.80;21.13;;;9.10;99.90;;;;;;5055270;28;20301;-69
2022/09/17 02:16:28;;;;;;;44.87;23.43;;;9.10;99.90;;;;;;5055006;28;20218;-68
2022/09/17 02:19:17;;;;;;;51.80;25.70;;;9.10;99.90;;;;;;5054250;28;20205;-68
2022/09/17 02:21:45;;;;;;;44.20;24.90;;;9.10;99.90;;;;;;5055610;28;20525;-69
2022/09/17 02:24:24;;;;;;;50.93;27.50;;;9.20;99.90;;;;;;5055120;28;20221;-69
2022/09/17 02:27:25;;;;;;;56.50;30.33;;;9.10;99.90;;;;;;5055129;28;20179;-70
2022/09/17 02:29:51;;;;;;;55.83;30.97;;;9.20;99.90;;;;;;5044121;28;20266;-69
2022/09/17 02:32:17;;;;;;;59.67;31.83;;;9.20;99.90;;;;;;5053569;28;20202;-69
2022/09/17 02:34:43;;;;;;;57.97;31.00;;;9.20;99.90;;;;;;5055126;28;20245;-69
2022/09/17 02:37:08;;;;;;;66.27;30.90;;;9.20;99.90;;;;;;5080710;28;20184;-69
2022/09/17 02:39:34;;;;;;;57.37;31.20;;;9.20;99.90;;;;;;5095241;28;20216;-69
2022/09/17 02:42:05;;;;;;;63.80;29.77;;;9.10;99.90;;;;;;5059268;28;20243;-68
2022/09/17 02:45:01;;;;;;;56.23;29.87;;;9.20;99.90;;;;;;5054811;28;20653;-69
2022/09/17 02:47:38;;;;;;;60.23;29.73;;;9.20;99.90;;;;;;5054717;28;20204;-68
2022/09/17 02:50:32;;;;;;;57.23;28.70;;;9.20;99.90;;;;;;5055381;28;20253;-68
2022/09/17 02:53:22;;;;;;;60.67;29.27;;;9.20;99.90;;;;;;5054378;28;20651;-68
2022/09/17 02:55:59;;;;;;;50.63;26.27;;;9.20;99.90;;;;;;5055108;28;20155;-69
2022/09/17 02:58:38;;;;;;;55.07;25.80;;;9.30;99.90;;;;;;5054417;28;20198;-69
2022/09/17 03:01:11;;;;;;;49.00;25.67;;;9.30;99.90;;;;;;5054654;28;20177;-69
2022/09/17 03:03:40;;;;;;;51.03;25.90;;;9.30;99.90;;;;;;5054629;28;20184;-69
2022/09/17 03:06:05;;;;;;;54.23;25.13;;;9.30;99.90;;;;;;5063184;28;20177;-69
2022/09/17 03:08:36;;;;;;;53.83;23.83;;;9.30;99.90;;;;;;5094732;28;20541;-69
2022/09/17 03:11:04;;;;;;;46.43;22.67;;;9.30;99.90;;;;;;5074297;28;20211;-69
2022/09/17 03:13:30;;;;;;;42.87;20.10;;;9.30;99.90;;;;;;5054319;28;20202;-69
2022/09/17 03:15:56;;;;;;;41.00;18.80;;;9.30;99.90;;;;;;5054177;28;20683;-69
2022/09/17 03:18:22;;;;;;;33.30;16.60;;;9.30;99.90;;;;;;5054215;28;20230;-69
2022/09/17 03:20:48;;;;;;;33.53;15.13;;;9.30;99.90;;;;;;5054308;28;20167;-69
2022/09/17 03:23:14;;;;;;;35.47;14.90;;;9.40;99.90;;;;;;5054381;28;20181;-69
2022/09/17 03:25:39;;;;;;;32.23;13.87;;;9.40;99.90;;;;;;5054272;28;20584;-69
2022/09/17 03:28:05;;;;;;;28.10;11.97;;;9.50;99.90;;;;;;5054022;28;20225;-69
2022/09/17 03:30:31;;;;;;;32.87;11.07;;;9.50;99.90;;;;;;5054405;28;20258;-69
2022/09/17 03:32:57;;;;;;;21.67;10.73;;;9.50;99.90;;;;;;5053763;28;20205;-68
2022/09/17 03:35:22;;;;;;;22.33;10.57;;;9.50;99.90;;;;;;5054231;28;20250;-68
2022/09/17 03:37:48;;;;;;;23.10;9.27;;;9.50;99.90;;;;;;5090667;28;20180;-69
2022/09/17 03:40:14;;;;;;;28.20;9.60;;;9.50;99.90;;;;;;5086794;28;20194;-69
2022/09/17 03:42:39;;;;;;;20.37;8.37;;;9.50;99.90;;;;;;5052550;28;20178;-68
2022/09/17 03:45:06;;;;;;;27.37;10.83;;;9.50;99.90;;;;;;5052376;28;20236;-69
2022/09/17 03:47:32;;;;;;;20.67;9.03;;;9.50;99.90;;;;;;5052934;28;20189;-69
2022/09/17 03:49:57;;;;;;;22.03;8.97;;;9.50;99.90;;;;;;5052398;28;20202;-69
2022/09/17 03:52:23;;;;;;;19.40;8.17;;;9.50;99.90;;;;;;5052265;28;20209;-68
2022/09/17 03:54:49;;;;;;;26.57;8.33;;;9.40;99.90;;;;;;5052578;28;20270;-68
2022/09/17 03:57:15;;;;;;;27.90;7.87;;;9.40;99.90;;;;;;5052394;28;20699;-69
2022/09/17 03:59:41;;;;;;;28.30;8.90;;;9.40;99.90;;;;;;5053505;28;20197;-69
2022/09/17 04:02:07;;;;;;;25.07;8.67;;;9.40;99.90;;;;;;5053518;28;20174;-69
2022/09/17 04:04:33;;;;;;;20.40;9.03;;;9.40;99.90;;;;;;5053749;28;20174;-68
2022/09/17 04:06:58;;;;;;;22.43;9.00;;;9.30;99.90;;;;;;5075482;28;20188;-69
2022/09/17 04:09:24;;;;;;;26.33;8.93;;;9.40;99.90;;;;;;5093844;28;20196;-69
2022/09/17 04:11:50;;;;;;;22.90;9.00;;;9.30;99.90;;;;;;5059712;28;20196;-69
2022/09/17 04:14:15;;;;;;;19.83;9.00;;;9.30;99.90;;;;;;5053550;28;20174;-69
2022/09/17 04:16:41;;;;;;;25.03;9.50;;;9.30;99.90;;;;;;5052008;28;20182;-69
2022/09/17 04:19:07;;;;;;;28.73;9.47;;;9.30;99.90;;;;;;5053434;28;20193;-69
2022/09/17 04:21:33;;;;;;;20.50;8.70;;;9.20;99.90;;;;;;5053288;28;20707;-69
2022/09/17 04:23:59;;;;;;;21.77;8.03;;;9.20;99.90;;;;;;5053835;28;20174;-68
2022/09/17 04:26:24;;;;;;;20.37;7.83;;;9.20;99.90;;;;;;5053325;28;20313;-69
2022/09/17 04:28:50;;;;;;;21.97;7.73;;;9.30;99.90;;;;;;5052014;28;20217;-69
2022/09/17 04:31:16;;;;;;;28.37;8.37;;;9.30;99.90;;;;;;5053706;28;20584;-69
2022/09/17 04:33:41;;;;;;;24.80;8.03;;;9.20;99.90;;;;;;5053378;28;20203;-69
2022/09/17 04:36:07;;;;;;;23.50;7.73;;;9.20;99.90;;;;;;5053529;28;20178;-69
2022/09/17 04:38:33;;;;;;;20.47;7.57;;;9.20;99.90;;;;;;5053105;28;20187;-69
2022/09/17 04:40:59;;;;;;;22.63;7.50;;;9.20;99.90;;;;;;5061807;28;20208;-69
2022/09/17 04:43:25;;;;;;;21.07;7.50;;;9.20;99.90;;;;;;5072090;28;20181;-69
2022/09/17 04:45:51;;;;;;;19.33;8.13;;;9.20;99.90;;;;;;5073384;28;20257;-69
2022/09/17 04:48:17;;;;;;;22.27;7.40;;;9.20;99.90;;;;;;5071849;28;20205;-69
2022/09/17 04:50:43;;;;;;;25.70;8.43;;;9.20;99.90;;;;;;5073406;28;20201;-69
2022/09/17 04:53:08;;;;;;;16.50;7.33;;;9.20;99.90;;;;;;5073104;28;20243;-69
2022/09/17 04:55:34;;;;;;;25.67;7.27;;;9.10;99.90;;;;;;5073632;28;20170;-69
2022/09/17 04:58:00;;;;;;;16.63;7.17;;;9.20;99.90;;;;;;5063428;28;20202;-69
2022/09/17 05:00:26;;;;;;;19.03;6.83;;;9.10;99.90;;;;;;5056560;28;20669;-69
2022/09/17 05:02:53;;;;;;;15.40;6.60;;;9.10;99.90;;;;;;5055465;28;20693;-68
2022/09/17 05:05:19;;;;;;;21.40;7.77;;;9.10;99.90;;;;;;5055376;28;20551;-69
2022/09/17 05:07:46;;;;;;;17.83;7.23;;;9.10;99.90;;;;;;5092753;28;20177;-70
2022/09/17 05:10:14;;;;;;;19.97;6.60;;;9.10;99.90;;;;;;5093804;28;20182;-70
2022/09/17 05:12:40;;;;;;;21.50;7.27;;;9.20;99.90;;;;;;5077226;28;20229;-70
2022/09/17 05:15:06;;;;;;;20.40;6.90;;;9.20;99.90;;;;;;5075443;28;20197;-70
2022/09/17 05:17:32;;;;;;;16.67;5.93;;;9.20;99.90;;;;;;5076515;28;20260;-70
2022/09/17 05:19:58;;;;;;;15.67;6.70;;;9.20;99.90;;;;;;5075501;28;20757;-70
2022/09/17 05:22:24;;;;;;;21.83;5.73;;;9.30;99.90;;;;;;5075045;28;20716;-70
2022/09/17 05:24:49;;;;;;;14.20;5.87;;;9.30;99.90;;;;;;5075442;28;20174;-69
2022/09/17 05:27:15;;;;;;;18.53;6.43;;;9.30;99.90;;;;;;5073165;28;20560;-70
2022/09/17 05:29:41;;;;;;;21.77;5.70;;;9.30;99.90;;;;;;5055623;28;20202;-70
2022/09/17 05:32:07;;;;;;;19.53;5.70;;;9.30;99.90;;;;;;5056278;28;20257;-69
2022/09/17 05:34:32;;;;;;;18.90;5.37;;;9.30;99.90;;;;;;5056989;28;20178;-70
2022/09/17 05:36:58;;;;;;;20.33;5.43;;;9.40;99.90;;;;;;5079655;28;20636;-69
2022/09/17 05:39:24;;;;;;;14.83;5.23;;;9.30;99.90;;;;;;5095150;28;20204;-70
2022/09/17 05:41:53;;;;;;;14.17;5.50;;;9.30;99.90;;;;;;5062755;28;20679;-70
2022/09/17 05:44:19;;;;;;;11.77;4.93;;;9.30;99.90;;;;;;5055291;28;20312;-70
2022/09/17 05:46:46;;;;;;;20.40;5.10;;;9.30;99.90;;;;;;5057466;28;20198;-71
2022/09/17 05:49:14;;;;;;;8.67;4.23;;;9.30;99.90;;;;;;5059681;28;20268;-70
2022/09/17 05:51:40;;;;;;;12.63;4.70;;;9.30;99.90;;;;;;5060112;28;20174;-70
2022/09/17 05:54:06;;;;;;;15.60;5.50;;;9.30;99.90;;;;;;5058685;28;20194;-71
2022/09/17 05:56:32;;;;;;;16.53;5.30;;;9.40;99.90;;;;;;5057146;28;20186;-71
2022/09/17 05:58:58;;;;;;;15.13;5.27;;;9.40;99.90;;;;;;5056733;28;20679;-71
2022/09/17 06:01:24;;;;;;;12.47;4.87;;;9.40;99.90;;;;;;5055129;28;20179;-70
2022/09/17 06:03:50;;;;;;;13.93;5.47;;;9.50;99.90;;;;;;5055908;28;20179;-70
2022/09/17 06:06:16;;;;;;;13.07;4.83;;;9.50;99.90;;;;;;5067455;28;20730;-71
2022/09/17 06:08:42;;;;;;;12.80;4.30;;;9.50;99.90;;;;;;5094776;28;20193;-70
2022/09/17 06:11:08;;;;;;;13.87;4.90;;;9.60;99.90;;;;;;5073267;28;20713;-70
2022/09/17 06:13:34;;;;;;;14.60;4.37;;;9.70;99.90;;;;;;5056162;28;20195;-70
2022/09/17 06:16:01;;;;;;;13.43;5.30;;;9.80;99.90;;;;;;5054455;28;20185;-71
2022/09/17 06:18:29;;;;;;;9.93;4.07;;;9.80;99.90;;;;;;5055374;28;20539;-71
2022/09/17 06:20:56;;;;;;;12.00;4.90;;;9.90;99.90;;;;;;5055632;28;20174;-71
2022/09/17 06:23:23;;;;;;;11.67;4.33;;;10.00;99.90;;;;;;5055320;28;20175;-70
2022/09/17 06:25:56;;;;;;;16.37;4.27;;;10.00;99.90;;;;;;5055828;28;20167;-70
2022/09/17 06:28:22;;;;;;;13.20;4.20;;;10.10;99.90;;;;;;5055434;28;20238;-70
2022/09/17 06:30:51;;;;;;;11.13;4.77;;;10.20;99.90;;;;;;5054292;28;20178;-70
2022/09/17 06:33:17;;;;;;;15.27;4.70;;;10.20;99.90;;;;;;5055365;28;20194;-70
2022/09/17 06:35:43;;;;;;;9.40;4.10;;;10.30;99.90;;;;;;5057920;28;20175;-70
2022/09/17 06:38:08;;;;;;;11.23;4.23;;;10.30;99.90;;;;;;5094710;28;20193;-70
2022/09/17 06:40:34;;;;;;;14.77;4.30;;;10.40;99.90;;;;;;5083035;28;20213;-70
2022/09/17 06:43:00;;;;;;;10.27;4.43;;;10.50;99.90;;;;;;5055619;28;20182;-70
2022/09/17 06:45:26;;;;;;;11.33;4.20;;;10.50;99.90;;;;;;5055495;28;20588;-72
2022/09/17 06:47:52;;;;;;;11.30;4.60;;;10.50;99.90;;;;;;5055128;28;20647;-70
2022/09/17 06:50:18;;;;;;;10.50;3.73;;;10.50;99.90;;;;;;5053839;28;20178;-71
2022/09/17 06:52:48;;;;;;;13.63;4.43;;;10.50;99.90;;;;;;5054902;28;20277;-71
2022/09/17 06:55:14;;;;;;;10.50;4.27;;;10.50;99.90;;;;;;5053545;28;20259;-70
2022/09/17 06:57:41;;;;;;;10.97;4.07;;;10.50;99.90;;;;;;5053344;28;20192;-70
2022/09/17 07:00:08;;;;;;;7.40;3.70;;;10.50;99.90;;;;;;5054886;28;20174;-70
2022/09/17 07:02:34;;;;;;;7.90;4.00;;;10.40;99.90;;;;;;5054413;28;20167;-70
2022/09/17 07:04:59;;;;;;;12.50;4.23;;;10.40;99.90;;;;;;5055066;28;20584;-70
2022/09/17 07:07:25;;;;;;;8.50;4.17;;;10.40;99.90;;;;;;5085035;28;20177;-70
2022/09/17 07:09:52;;;;;;;7.47;3.90;;;10.40;99.90;;;;;;5093589;28;20238;-70
2022/09/17 07:12:19;;;;;;;5.57;3.73;;;10.40;99.90;;;;;;5054198;28;20561;-69
2022/09/17 07:14:46;;;;;;;9.13;4.27;;;10.40;99.90;;;;;;5053055;28;20639;-69
2022/09/17 07:17:12;;;;;;;8.33;4.10;;;10.40;99.90;;;;;;5052983;28;20550;-69
2022/09/17 07:19:38;;;;;;;16.73;4.80;;;10.40;99.90;;;;;;5054244;28;20187;-69
2022/09/17 07:22:04;;;;;;;9.90;3.73;;;10.40;99.90;;;;;;5052166;28;20181;-70
2022/09/17 07:24:30;;;;;;;7.77;4.10;;;10.40;99.90;;;;;;5054593;28;20532;-69
2022/09/17 07:26:55;;;;;;;14.70;4.50;;;10.50;99.90;;;;;;5054115;28;20545;-70
2022/09/17 07:29:25;;;;;;;9.93;4.07;;;10.50;99.90;;;;;;5054275;28;20198;-69
2022/09/17 07:31:51;;;;;;;13.93;4.47;;;10.50;99.90;;;;;;5053867;28;20174;-70
2022/09/17 07:34:17;;;;;;;17.57;5.33;;;10.50;99.90;;;;;;5053812;28;20208;-70
2022/09/17 07:36:43;;;;;;;10.73;4.27;;;10.50;99.90;;;;;;5071251;28;20208;-69
2022/09/17 07:39:10;;;;;;;6.20;3.23;;;10.60;99.90;;;;;;5094214;28;20216;-69
2022/09/17 07:41:36;;;;;;;10.73;4.70;;;10.70;99.90;;;;;;5062730;28;20206;-69
2022/09/17 07:44:02;;;;;;;9.77;4.13;;;10.70;99.90;;;;;;5052692;28;20189;-70
2022/09/17 07:46:28;;;;;;;7.73;3.67;;;10.70;99.90;;;;;;5054387;28;20170;-70
2022/09/17 07:48:55;;;;;;;11.07;3.83;;;10.70;99.90;;;;;;5053412;28;20190;-70
2022/09/17 07:51:23;;;;;;;13.27;4.10;;;10.70;99.90;;;;;;5053687;28;20265;-70
2022/09/17 07:53:57;;;;;;;7.53;3.40;;;10.80;99.90;;;;;;5052391;28;20207;-70
2022/09/17 07:56:24;;;;;;;6.27;3.80;;;11.00;99.90;;;;;;5054078;28;20205;-70
2022/09/17 07:58:50;;;;;;;16.53;4.13;;;11.20;99.90;;;;;;5052172;28;20195;-70
2022/09/17 08:01:17;;;;;;;10.97;3.53;;;11.30;99.90;;;;;;5053697;28;20666;-70
2022/09/17 08:03:46;;;;;;;7.87;3.40;;;11.40;99.90;;;;;;5053339;28;20305;-70
2022/09/17 08:06:15;;;;;;;9.50;3.70;;;11.50;99.90;;;;;;5064036;28;20203;-71
2022/09/17 08:08:41;;;;;;;8.47;3.93;;;11.60;99.90;;;;;;5094143;28;20268;-71
2022/09/17 08:11:27;;;;;;;8.93;4.17;;;11.60;99.90;;;;;;5072055;28;20657;-71
2022/09/17 08:13:53;;;;;;;7.60;3.30;;;11.60;99.90;;;;;;5053806;28;20557;-71
2022/09/17 08:16:20;;;;;;;9.30;3.37;;;11.60;99.90;;;;;;5053966;28;20174;-71
2022/09/17 08:18:47;;;;;;;6.10;3.63;;;11.60;99.90;;;;;;5053424;28;20320;-71
2022/09/17 08:21:15;;;;;;;8.10;3.30;;;11.60;99.90;;;;;;5052445;28;20182;-71
2022/09/17 08:23:42;;;;;;;8.77;3.43;;;11.70;99.90;;;;;;5052498;28;20189;-71
2022/09/17 08:26:17;;;;;;;9.37;3.83;;;11.80;99.90;;;;;;5052312;28;20597;-71
2022/09/17 08:28:48;;;;;;;8.10;4.33;;;11.90;99.90;;;;;;5053480;28;20236;-71
2022/09/17 08:31:16;;;;;;;11.43;3.63;;;11.90;99.90;;;;;;5053757;28;20174;-71
2022/09/17 08:33:42;;;;;;;11.52;4.05;;;11.90;99.90;;;;;;5054139;28;20198;-71
2022/09/17 08:36:11;;;;;;;10.83;3.90;;;12.00;99.90;;;;;;5066923;28;20180;-70
2022/09/17 08:38:37;;;;;;;15.50;3.95;;;12.10;99.90;;;;;;5097792;28;20189;-71
2022/09/17 08:41:04;;;;;;;9.60;4.13;;;12.10;99.90;;;;;;5076564;28;20190;-71
2022/09/17 08:43:32;;;;;;;8.27;3.55;;;12.10;99.90;;;;;;5057381;28;20224;-71
2022/09/17 08:45:59;;;;;;;9.25;3.20;;;12.20;99.90;;;;;;5056076;28;20189;-71
2022/09/17 08:48:33;;;;;;;7.68;3.42;;;12.30;99.90;;;;;;5056915;28;20220;-71
2022/09/17 08:51:00;;;;;;;10.70;3.35;;;12.50;99.90;;;;;;5057597;28;20154;-71
2022/09/17 08:53:33;;;;;;;8.30;3.30;;;12.60;99.90;;;;;;5056938;28;20194;-71
2022/09/17 08:56:18;;;;;;;10.13;3.83;;;12.70;99.90;;;;;;5057335;28;20161;-71
2022/09/17 08:59:07;;;;;;;13.65;4.13;;;12.80;99.90;;;;;;5057321;28;20569;-71
2022/09/17 09:01:45;;;;;;;9.57;3.35;;;13.00;99.90;;;;;;5055678;28;20223;-72
2022/09/17 09:04:19;;;;;;;17.00;3.92;;;13.00;99.90;;;;;;5056867;28;20163;-71
2022/09/17 09:06:58;;;;;;;13.25;3.60;;;12.90;99.90;;;;;;5076479;28;20648;-71
2022/09/17 09:09:30;;;;;;;9.38;3.40;;;12.90;99.90;;;;;;5097177;28;20197;-71
2022/09/17 09:12:04;;;;;;;12.45;3.78;;;13.00;99.90;;;;;;5061352;28;20269;-71
2022/09/17 09:14:55;;;;;;;5.05;3.10;;;13.10;99.90;;;;;;5055494;28;20179;-72
2022/09/17 09:17:24;;;;;;;8.45;3.35;;;13.20;99.90;;;;;;5055264;28;20167;-71
2022/09/17 09:19:52;;;;;;;4.97;2.97;;;13.10;99.90;;;;;;5055269;28;20234;-71
2022/09/17 09:23:05;;;;;;;6.57;3.20;;;13.10;99.90;;;;;;5056699;28;20154;-71
2022/09/17 09:25:41;;;;;;;5.00;2.83;;;13.20;99.90;;;;;;5056217;28;20182;-71
2022/09/17 09:28:32;;;;;;;7.68;3.42;;;13.30;99.90;;;;;;5055121;28;20202;-72
2022/09/17 09:31:28;;;;;;;7.60;3.88;;;13.20;99.90;;;;;;5055245;28;20256;-70
2022/09/17 09:33:55;;;;;;;6.63;3.05;;;13.40;99.90;;;;;;5054764;28;20553;-71
2022/09/17 09:36:21;;;;;;;9.35;3.50;;;13.20;99.90;;;;;;5067388;28;20212;-71
2022/09/17 09:39:05;;;;;;;5.63;3.20;;;13.20;99.90;;;;;;5096360;28;20185;-71
2022/09/17 09:41:42;;;;;;;5.40;3.00;;;13.10;99.90;;;;;;5081768;28;20212;-70
2022/09/17 09:44:11;;;;;;;4.68;2.72;;;13.10;99.90;;;;;;5076362;28;20557;-71
2022/09/17 09:47:21;;;;;;;9.10;2.67;;;13.20;99.90;;;;;;5075027;28;20170;-72
2022/09/17 09:50:02;;;;;;;4.85;3.08;;;13.30;99.90;;;;;;5076131;28;20193;-72
2022/09/17 09:52:41;;;;;;;5.57;2.83;;;13.10;99.90;;;;;;5075942;28;20568;-71
2022/09/17 09:55:22;;;;;;;6.35;3.03;;;13.30;99.90;;;;;;5074748;28;20208;-71
2022/09/17 09:58:04;;;;;;;4.85;2.88;;;13.30;99.90;;;;;;5066798;28;20331;-71
2022/09/17 10:00:41;;;;;;;9.75;2.70;;;13.10;99.90;;;;;;5055751;28;20171;-70
2022/09/17 10:03:16;;;;;;;4.60;2.90;;;13.40;99.90;;;;;;5054516;28;20173;-71
2022/09/17 10:05:57;;;;;;;5.53;2.90;;;13.50;99.90;;;;;;5056356;28;20219;-70
2022/09/17 10:08:25;;;;;;;6.03;2.88;;;13.50;99.90;;;;;;5096793;28;20627;-71
2022/09/17 10:11:10;;;;;;;4.55;2.70;;;13.50;99.90;;;;;;5078615;28;20186;-71
2022/09/17 10:13:36;;;;;;;9.77;3.13;;;13.40;99.90;;;;;;5055935;28;20194;-71
2022/09/17 10:16:28;;;;;;;10.13;2.85;;;13.50;99.90;;;;;;5056389;28;20565;-71
2022/09/17 10:19:02;;;;;;;4.90;2.70;;;13.70;99.90;;;;;;5051342;28;20207;-70
2022/09/17 10:21:31;;;;;;;7.22;2.92;;;13.90;99.90;;;;;;5055054;28;20162;-71
2022/09/17 10:23:58;;;;;;;5.53;2.70;;;13.90;99.90;;;;;;5055314;28;20175;-70
2022/09/17 10:26:35;;;;;;;4.72;2.63;;;13.90;99.90;;;;;;5055380;28;20189;-71
2022/09/17 10:29:13;;;;;;;6.40;2.90;;;13.90;99.90;;;;;;5055195;28;20197;-71
2022/09/17 10:31:50;;;;;;;7.47;3.08;;;13.70;99.90;;;;;;5053872;28;20170;-70
2022/09/17 10:34:24;;;;;;;8.70;2.50;;;13.80;99.90;;;;;;5053818;28;20289;-71
2022/09/17 10:36:51;;;;;;;4.43;2.60;;;13.90;99.90;;;;;;5075865;28;20181;-70
2022/09/17 10:39:36;;;;;;;6.20;2.53;;;14.00;99.90;;;;;;5095136;28;20655;-70
2022/09/17 10:42:11;;;;;;;6.50;2.65;;;14.00;99.90;;;;;;5076265;28;20197;-71
2022/09/17 10:44:48;;;;;;;4.88;2.63;;;14.00;99.90;;;;;;5074903;28;20251;-70
2022/09/17 10:47:25;;;;;;;3.22;2.40;;;13.80;99.90;;;;;;5074958;28;20170;-71
2022/09/17 10:50:00;;;;;;;2.72;2.25;;;14.10;99.90;;;;;;5075405;28;20224;-73
2022/09/17 10:52:33;;;;;;;3.40;2.50;;;14.40;99.90;;;;;;5073711;28;20216;-70
2022/09/17 10:55:27;;;;;;;5.35;2.50;;;14.40;99.90;;;;;;5073429;28;20177;-70
2022/09/17 10:58:06;;;;;;;4.05;2.60;;;14.20;99.90;;;;;;5066259;28;20228;-71
2022/09/17 11:00:43;;;;;;;5.25;2.50;;;14.20;99.90;;;;;;5055116;28;20174;-73
2022/09/17 11:03:30;;;;;;;7.47;2.60;;;14.30;99.90;;;;;;5053374;28;20227;-71
2022/09/17 11:05:56;;;;;;;2.92;2.50;;;14.30;99.90;;;;;;5060500;28;20679;-71
2022/09/17 11:08:21;;;;;;;5.43;2.90;;;14.30;99.90;;;;;;5094741;28;20197;-71
2022/09/17 11:11:11;;;;;;;9.07;2.80;;;14.40;99.90;;;;;;5086233;28;20230;-72
2022/09/17 11:13:55;;;;;;;3.95;2.75;;;14.50;99.90;;;;;;5074729;28;20677;-71
2022/09/17 11:16:27;;;;;;;5.95;2.58;;;14.30;99.90;;;;;;5073258;28;20177;-71
2022/09/17 11:19:02;;;;;;;3.97;2.25;;;14.00;99.90;;;;;;5073086;28;20220;-71
2022/09/17 11:21:39;;;;;;;8.82;2.75;;;13.20;99.90;;;;;;5073134;28;20169;-70
2022/09/17 11:24:13;;;;;;;4.45;2.80;;;12.90;99.90;;;;;;5073158;28;20174;-70
2022/09/17 11:26:56;;;;;;;5.43;2.55;;;12.80;99.90;;;;;;5074389;28;20177;-70
2022/09/17 11:29:34;;;;;;;7.07;2.63;;;12.70;99.90;;;;;;5054355;28;20660;-70
2022/09/17 11:32:26;;;;;;;5.55;2.53;;;12.60;99.90;;;;;;5054937;28;20203;-70
2022/09/17 11:35:00;;;;;;;7.32;2.40;;;12.60;99.90;;;;;;5054746;28;20163;-70
2022/09/17 11:37:57;;;;;;;4.53;2.63;;;12.60;99.90;;;;;;5085883;28;20505;-70
2022/09/17 11:40:46;;;;;;;7.38;2.50;;;12.50;99.90;;;;;;5090508;28;20579;-70
2022/09/17 11:43:29;;;;;;;4.50;2.50;;;12.40;99.90;;;;;;5073500;28;20251;-70
2022/09/17 11:46:28;;;;;;;4.70;2.72;;;12.40;99.90;;;;;;5075022;28;20215;-70
2022/09/17 11:49:11;;;;;;;4.95;2.45;;;12.50;99.90;;;;;;5074402;28;20190;-70
2022/09/17 11:51:49;;;;;;;6.13;2.70;;;12.60;99.90;;;;;;5074625;28;20165;-72
2022/09/17 11:54:56;;;;;;;3.28;2.28;;;13.20;99.90;;;;;;5074299;28;20654;-71
2022/09/17 11:57:27;;;;;;;3.42;2.20;;;13.70;99.90;;;;;;5055278;28;20184;-71
2022/09/17 12:00:05;;;;;;;3.22;2.20;;;14.10;99.90;;;;;;5055197;28;20197;-70
2022/09/17 12:03:06;;;;;;;2.60;2.40;;;14.10;99.90;;;;;;5052492;28;20197;-71
2022/09/17 12:05:47;;;;;;;4.40;2.20;;;13.90;99.90;;;;;;5052815;28;20178;-71
2022/09/17 12:08:25;;;;;;;4.72;2.10;;;14.10;99.90;;;;;;5051755;28;20217;-71
2022/09/17 12:11:17;;;;;;;4.15;2.47;;;14.40;99.90;;;;;;5054006;28;20214;-71
2022/09/17 12:13:51;;;;;;;3.33;2.40;;;14.40;99.90;;;;;;5054483;28;20194;-71
2022/09/17 12:16:37;;;;;;;3.08;2.45;;;14.20;99.90;;;;;;5057052;28;20232;-71
2022/09/17 12:19:28;;;;;;;2.65;2.35;;;13.80;99.90;;;;;;5056143;28;20208;-71
2022/09/17 12:22:00;;;;;;;3.05;2.20;;;13.90;99.90;;;;;;5055048;28;20170;-71
2022/09/17 12:24:27;;;;;;;2.50;2.30;;;14.10;99.90;;;;;;5056362;28;20159;-71
2022/09/17 12:27:13;;;;;;;3.35;2.40;;;13.90;99.90;;;;;;5055031;28;20174;-71
2022/09/17 12:29:51;;;;;;;3.00;2.30;;;13.70;99.90;;;;;;5054005;28;20220;-71
2022/09/17 12:32:46;;;;;;;3.55;2.30;;;13.60;99.90;;;;;;5052860;28;20178;-71
2022/09/17 12:35:20;;;;;;;3.38;2.20;;;13.40;99.90;;;;;;5053700;28;20620;-71
2022/09/17 12:38:05;;;;;;;3.15;2.03;;;13.20;99.90;;;;;;5089415;28;20176;-70
2022/09/17 12:40:36;;;;;;;2.53;2.33;;;13.10;99.90;;;;;;5087614;28;20735;-70
2022/09/17 12:43:05;;;;;;;5.17;2.30;;;13.00;99.90;;;;;;5073295;28;20197;-70
2022/09/17 12:45:33;;;;;;;2.25;2.10;;;13.00;99.90;;;;;;5071928;28;20215;-70
2022/09/17 12:48:08;;;;;;;3.97;2.20;;;12.90;99.90;;;;;;5071866;28;20264;-70
2022/09/17 12:50:58;;;;;;;3.80;2.50;;;12.70;99.90;;;;;;5073180;28;20605;-71
2022/09/17 12:53:31;;;;;;;5.05;2.30;;;12.80;99.90;;;;;;5071866;28;20243;-71
2022/09/17 12:56:05;;;;;;;3.92;2.63;;;13.10;99.90;;;;;;5072051;28;20261;-71
2022/09/17 12:58:46;;;;;;;4.63;2.38;;;13.60;99.90;;;;;;5059440;28;20547;-71
2022/09/17 13:01:35;;;;;;;4.25;2.58;;;13.70;99.90;;;;;;5053208;28;20169;-71
2022/09/17 13:04:09;;;;;;;2.60;2.40;;;14.00;99.90;;;;;;5053050;28;20163;-71
2022/09/17 13:06:54;;;;;;;2.50;2.30;;;14.40;99.90;;;;;;5069817;28;20676;-71
2022/09/17 13:09:41;;;;;;;2.80;2.40;;;14.60;99.90;;;;;;5091819;28;20574;-71
2022/09/17 13:12:28;;;;;;;2.60;2.30;;;14.70;99.90;;;;;;5073805;28;20186;-70